Terminal Aerodrome Forecast
Issued by NWS

Home | Current Version | Previous Version | Text Only | Print | Product List | Glossary On
Versions: 1 2 3 4 5 6 7 8 9 10 11 12 13 14 15 16 17 18 19 20 21 22
000
FTUS43 KDLH 210700 AAA
TAFBRD
TAF AMD
KBRD 210734Z 2108/2206 25004KT P6SM SCT100
     FM211400 35010G17KT P6SM SKC
     FM220100 34004KT P6SM SKC=

USA.gov is the U.S. government's official web portal to all federal, state and local government web resources and services.